Time;durP1;ratioP1;P1;durP2;ratioP2;P2;SDS_P1;SDS_P2;PMS_P1;PMS_P2;Temp;Humidity;BMP_temperature;BMP_pressure;BME280_temperature;BME280_humidity;BME280_pressure;Samples;Min_cycle;Max_cycle;Signal;HPM_P1;HPM_P2
2021/12/27 00:01:45;;;;;;;10.73;6.13;;;5.20;99.90;;;;;;4938322;28;20031;-84
2021/12/27 00:04:10;;;;;;;9.27;5.60;;;5.20;99.90;;;;;;4941316;28;20476;-84
2021/12/27 00:06:36;;;;;;;10.93;6.25;;;5.20;99.90;;;;;;4942503;28;20042;-83
2021/12/27 00:09:02;;;;;;;11.20;5.95;;;8.20;99.90;;;;;;4934230;28;20369;-81
2021/12/27 00:11:28;;;;;;;10.00;5.93;;;;;;;;;;4935235;28;20480;-81
2021/12/27 00:13:54;;;;;;;9.23;5.22;;;5.30;99.90;;;;;;4938580;28;20057;-85
2021/12/27 00:16:20;;;;;;;10.20;5.78;;;6.80;99.90;;;;;;4935761;28;20103;-83
2021/12/27 00:18:45;;;;;;;12.10;5.82;;;6.00;99.90;;;;;;4932763;28;20286;-85
2021/12/27 00:21:11;;;;;;;11.35;5.65;;;;;;;;;;4939490;28;20028;-84
2021/12/27 00:23:38;;;;;;;12.02;5.82;;;5.20;99.90;;;;;;4940184;28;20104;-84
2021/12/27 00:26:04;;;;;;;9.15;5.63;;;6.60;99.90;;;;;;4933340;28;20032;-84
2021/12/27 00:28:30;;;;;;;11.73;5.88;;;5.30;99.90;;;;;;4934273;28;20178;-87
2021/12/27 00:30:57;;;;;;;8.85;6.18;;;5.20;99.90;;;;;;4932476;28;20043;-82
2021/12/27 00:33:23;;;;;;;12.52;6.10;;;;;;;;;;4936383;28;20042;-83
2021/12/27 00:35:49;;;;;;;12.95;6.80;;;5.20;99.90;;;;;;4939346;28;20028;-85
2021/12/27 00:38:15;;;;;;;10.43;5.25;;;5.30;99.90;;;;;;4942718;28;20131;-83
2021/12/27 00:40:41;;;;;;;12.43;6.25;;;8.30;99.90;;;;;;4932806;28;20405;-84
2021/12/27 00:43:07;;;;;;;10.43;5.78;;;6.20;99.90;;;;;;4940910;28;21778;-80
2021/12/27 00:45:33;;;;;;;9.82;5.90;;;;;;;;;;4950512;28;20026;-81
2021/12/27 00:47:59;;;;;;;11.88;6.55;;;5.30;99.90;;;;;;4930389;28;20040;-85
2021/12/27 00:50:25;;;;;;;12.48;6.22;;;5.20;99.90;;;;;;4934815;28;20476;-82
2021/12/27 00:52:51;;;;;;;11.52;6.13;;;5.30;99.90;;;;;;4943664;28;20037;-83
2021/12/27 00:55:17;;;;;;;11.40;5.85;;;5.60;99.90;;;;;;4947591;28;20120;-84
2021/12/27 00:57:42;;;;;;;11.05;5.97;;;6.70;99.90;;;;;;4931005;28;20131;-79
2021/12/27 01:00:11;;;;;;;12.50;6.40;;;5.30;99.90;;;;;;4955794;28;20048;-84
2021/12/27 01:02:37;;;;;;;13.02;6.35;;;5.40;99.90;;;;;;4942435;28;20028;-82
2021/12/27 01:05:03;;;;;;;12.93;5.82;;;6.30;99.90;;;;;;4936884;28;20129;-83
2021/12/27 01:07:29;;;;;;;13.05;6.28;;;5.30;99.90;;;;;;4939226;28;20028;-82
2021/12/27 01:17:35;;;;;;;10.85;6.30;;;7.60;99.90;;;;;;4935687;28;20043;-81
2021/12/27 01:20:01;;;;;;;11.63;5.88;;;5.40;99.90;;;;;;4940382;28;20047;-84
2021/12/27 01:22:26;;;;;;;11.70;6.30;;;7.80;99.90;;;;;;4933905;28;20027;-85
2021/12/27 01:24:52;;;;;;;11.60;6.20;;;6.50;99.90;;;;;;4938044;28;20071;-82
2021/12/27 01:27:17;;;;;;;12.98;6.60;;;5.40;99.90;;;;;;4930987;28;20031;-85
2021/12/27 01:29:43;;;;;;;10.88;5.97;;;8.10;99.90;;;;;;4932180;28;20039;-85
2021/12/27 01:32:09;;;;;;;11.85;6.13;;;5.30;99.90;;;;;;4937642;28;20037;-87
2021/12/27 01:34:34;;;;;;;11.75;6.25;;;5.30;99.90;;;;;;4936585;28;20036;-84
2021/12/27 01:37:00;;;;;;;11.25;6.32;;;5.40;99.90;;;;;;4953015;28;20030;-86
2021/12/27 01:39:25;;;;;;;10.40;6.38;;;5.40;99.90;;;;;;4945199;28;20034;-83
2021/12/27 01:41:52;;;;;;;13.07;7.20;;;6.60;99.90;;;;;;4939066;28;20166;-88
2021/12/27 01:44:17;;;;;;;12.05;6.63;;;6.80;99.90;;;;;;4934303;28;20032;-86
2021/12/27 01:46:43;;;;;;;14.43;7.07;;;6.80;99.90;;;;;;4963807;28;20039;-88
2021/12/27 01:49:09;;;;;;;11.90;6.55;;;5.50;99.90;;;;;;4944692;28;20062;-88
2021/12/27 01:51:39;;;;;;;11.68;6.50;;;7.40;99.90;;;;;;4935450;28;20135;-84
2021/12/27 01:54:05;;;;;;;12.85;6.85;;;6.50;99.90;;;;;;4936775;28;20040;-84
2021/12/27 01:56:31;;;;;;;13.18;7.20;;;5.50;99.90;;;;;;4932478;28;20062;-83
2021/12/27 01:58:58;;;;;;;11.98;6.47;;;6.30;99.90;;;;;;4938522;28;20063;-83
2021/12/27 02:01:25;;;;;;;13.52;6.97;;;5.60;99.90;;;;;;4938633;28;20071;-86
2021/12/27 02:03:53;;;;;;;14.20;6.88;;;7.00;99.90;;;;;;4944757;28;20515;-85
2021/12/27 02:06:19;;;;;;;14.68;7.10;;;6.30;99.90;;;;;;4935250;28;20031;-84
2021/12/27 02:08:46;;;;;;;13.88;7.20;;;6.20;99.90;;;;;;4932101;28;20488;-87
2021/12/27 02:11:14;;;;;;;13.88;7.57;;;5.90;99.90;;;;;;4945436;28;20047;-83
2021/12/27 02:13:44;;;;;;;12.13;7.00;;;5.60;99.90;;;;;;4954622;28;20022;-85
2021/12/27 02:16:13;;;;;;;11.98;7.20;;;5.80;99.90;;;;;;4933586;28;20034;-83
2021/12/27 02:18:40;;;;;;;14.98;7.25;;;5.60;99.90;;;;;;4944151;28;20318;-84
2021/12/27 02:21:06;;;;;;;13.07;6.80;;;6.50;99.90;;;;;;4932707;28;20024;-82
2021/12/27 02:23:32;;;;;;;16.38;7.30;;;6.60;99.90;;;;;;4946390;28;20062;-85
2021/12/27 02:25:58;;;;;;;11.93;7.22;;;5.70;99.90;;;;;;4953465;28;20022;-82
2021/12/27 02:28:24;;;;;;;13.45;7.35;;;7.00;99.90;;;;;;4932951;28;20066;-84
2021/12/27 02:30:52;;;;;;;15.88;7.10;;;5.70;99.90;;;;;;4944865;28;20024;-85
2021/12/27 02:33:18;;;;;;;12.73;6.93;;;5.80;99.90;;;;;;4935498;28;20035;-80
2021/12/27 02:35:50;;;;;;;14.48;7.30;;;6.80;99.90;;;;;;4943120;28;20055;-84
2021/12/27 02:38:21;;;;;;;12.07;6.78;;;5.80;99.90;;;;;;4935854;28;20032;-85
2021/12/27 02:40:50;;;;;;;15.85;7.00;;;5.80;99.90;;;;;;4928796;28;20051;-86
2021/12/27 02:43:19;;;;;;;15.23;7.13;;;5.90;99.90;;;;;;4946946;28;20035;-83
2021/12/27 02:46:05;;;;;;;13.70;6.90;;;8.20;99.90;;;;;;4926925;28;20400;-86
2021/12/27 02:48:36;;;;;;;12.77;7.53;;;5.90;99.90;;;;;;4931654;28;20039;-86
2021/12/27 02:51:02;;;;;;;13.70;7.43;;;6.00;99.90;;;;;;4947680;28;20039;-81
2021/12/27 02:53:28;;;;;;;15.57;7.57;;;5.90;99.90;;;;;;4921363;28;20036;-81
2021/12/27 02:55:56;;;;;;;14.13;7.03;;;5.80;99.90;;;;;;4927705;28;20439;-84
2021/12/27 02:58:23;;;;;;;14.65;7.32;;;6.70;99.90;;;;;;4944441;28;20044;-83
2021/12/27 03:00:54;;;;;;;14.95;8.30;;;8.30;99.90;;;;;;4935926;28;20493;-82
2021/12/27 03:03:20;;;;;;;12.60;7.47;;;6.40;99.90;;;;;;4933192;28;20119;-84
2021/12/27 03:05:47;;;;;;;13.82;7.22;;;6.00;99.90;;;;;;4927675;28;20074;-84
2021/12/27 03:08:16;;;;;;;15.38;8.27;;;6.00;99.90;;;;;;4928659;28;20058;-84
2021/12/27 03:10:50;;;;;;;13.38;7.40;;;8.30;99.90;;;;;;4928514;28;20032;-83
2021/12/27 03:13:21;;;;;;;16.25;8.30;;;6.90;99.90;;;;;;4943403;28;20028;-83
2021/12/27 03:15:51;;;;;;;14.85;7.60;;;6.00;99.90;;;;;;4931855;28;20028;-84
2021/12/27 03:18:17;;;;;;;15.65;7.68;;;7.50;99.90;;;;;;4936220;28;20031;-83
2021/12/27 03:20:42;;;;;;;18.15;9.65;;;6.40;99.90;;;;;;4935232;29;20032;-85
2021/12/27 03:23:08;;;;;;;13.75;7.35;;;6.10;99.90;;;;;;4949139;28;20374;-87
2021/12/27 03:25:34;;;;;;;14.02;7.63;;;7.20;99.90;;;;;;4929920;29;20028;-86
2021/12/27 03:27:59;;;;;;;17.63;8.48;;;6.10;99.90;;;;;;4933654;28;20039;-83
2021/12/27 03:30:26;;;;;;;13.02;7.40;;;7.20;99.90;;;;;;4937297;29;20450;-85
2021/12/27 03:32:53;;;;;;;14.07;7.95;;;6.20;99.90;;;;;;4951232;28;20070;-86
2021/12/27 03:35:34;;;;;;;15.57;8.48;;;6.20;99.90;;;;;;4939163;28;20023;-84
2021/12/27 03:38:01;;;;;;;17.50;9.23;;;7.60;99.90;;;;;;4936125;29;20082;-84
2021/12/27 03:40:28;;;;;;;13.70;7.60;;;6.20;99.90;;;;;;4932215;29;20477;-85
2021/12/27 03:42:56;;;;;;;17.08;9.20;;;6.20;99.90;;;;;;4951277;28;20029;-86
2021/12/27 03:45:31;;;;;;;20.08;9.70;;;7.00;99.90;;;;;;4970981;28;20101;-81
2021/12/27 03:47:57;;;;;;;18.70;8.73;;;6.30;99.90;;;;;;4934893;28;20033;-85
2021/12/27 03:50:25;;;;;;;14.13;7.43;;;7.00;99.90;;;;;;4928207;28;20499;-84
2021/12/27 03:52:51;;;;;;;13.35;7.45;;;8.30;99.90;;;;;;4935133;29;20043;-86
2021/12/27 03:55:17;;;;;;;17.00;8.00;;;6.30;99.90;;;;;;4945050;28;20114;-84
2021/12/27 03:57:51;;;;;;;13.95;7.47;;;6.30;99.90;;;;;;4960608;28;20078;-85
2021/12/27 04:02:48;;;;;;;15.52;8.30;;;6.30;99.90;;;;;;4935977;28;20638;-86
2021/12/27 04:05:14;;;;;;;14.55;8.10;;;6.30;99.90;;;;;;4934197;28;20024;-87
2021/12/27 04:07:43;;;;;;;19.33;9.02;;;6.30;99.90;;;;;;4937920;29;20043;-85
2021/12/27 04:10:11;;;;;;;11.73;7.35;;;6.40;99.90;;;;;;4948021;28;20032;-85
2021/12/27 04:12:38;;;;;;;16.38;7.72;;;8.20;99.90;;;;;;4955709;28;20032;-83
2021/12/27 04:15:07;;;;;;;13.10;7.43;;;6.60;99.90;;;;;;4940972;28;20681;-83
2021/12/27 04:17:32;;;;;;;16.05;7.68;;;6.40;99.90;;;;;;4943394;29;20044;-83
2021/12/27 04:19:59;;;;;;;13.48;7.50;;;6.40;99.90;;;;;;4934994;29;20020;-87
2021/12/27 04:22:24;;;;;;;16.38;9.00;;;6.40;99.90;;;;;;4946183;28;20122;-85
2021/12/27 04:24:50;;;;;;;18.45;10.05;;;6.50;99.90;;;;;;4929301;29;20109;-87
2021/12/27 04:27:16;;;;;;;15.18;7.82;;;6.40;99.90;;;;;;4928592;28;20028;-84
2021/12/27 04:29:41;;;;;;;14.25;7.65;;;6.40;99.90;;;;;;4947196;28;20060;-85
2021/12/27 04:32:08;;;;;;;14.95;8.15;;;6.50;99.90;;;;;;4935426;29;20032;-88
2021/12/27 04:34:33;;;;;;;13.85;7.78;;;6.40;99.90;;;;;;4934152;29;20090;-83
2021/12/27 04:36:59;;;;;;;15.13;8.38;;;6.40;99.90;;;;;;4938049;28;20032;-86
2021/12/27 04:39:25;;;;;;;14.23;7.70;;;6.50;99.90;;;;;;4967625;28;20024;-84
2021/12/27 04:41:52;;;;;;;11.57;6.72;;;6.50;99.90;;;;;;4966713;28;20024;-83
2021/12/27 04:44:18;;;;;;;14.75;7.68;;;6.50;99.90;;;;;;4945660;28;20020;-86
2021/12/27 04:46:44;;;;;;;11.50;7.10;;;6.50;99.90;;;;;;4974993;28;20019;-86
2021/12/27 04:49:10;;;;;;;12.73;7.32;;;7.00;99.90;;;;;;4976333;28;20040;-87
2021/12/27 04:51:35;;;;;;;18.88;8.23;;;6.70;99.90;;;;;;4973086;28;20028;-87
2021/12/27 04:54:01;;;;;;;19.48;9.15;;;6.70;99.90;;;;;;4953396;28;20107;-86
2021/12/27 04:56:27;;;;;;;13.10;7.30;;;6.70;99.90;;;;;;4954007;28;20016;-87
2021/12/27 04:58:52;;;;;;;14.13;7.68;;;7.30;99.90;;;;;;4954477;28;20070;-86
2021/12/27 05:01:18;;;;;;;16.90;9.25;;;6.80;99.90;;;;;;4954662;28;20031;-87
2021/12/27 05:03:44;;;;;;;13.90;8.18;;;6.70;99.90;;;;;;4962446;28;20082;-85
2021/12/27 05:06:13;;;;;;;13.98;8.00;;;6.80;99.90;;;;;;4956379;28;20031;-86
2021/12/27 05:08:39;;;;;;;15.75;8.55;;;6.70;99.90;;;;;;4942871;28;20031;-84
2021/12/27 05:11:04;;;;;;;15.90;8.18;;;6.70;99.90;;;;;;4946779;28;20024;-88
2021/12/27 05:13:32;;;;;;;13.68;7.90;;;6.70;99.90;;;;;;4950997;28;20028;-84
2021/12/27 05:15:59;;;;;;;14.13;7.65;;;6.80;99.90;;;;;;4942065;28;20054;-85
2021/12/27 05:18:24;;;;;;;15.52;8.45;;;8.30;99.90;;;;;;4956928;28;20040;-85
2021/12/27 05:20:50;;;;;;;14.45;7.82;;;6.80;99.90;;;;;;4933587;28;20392;-85
2021/12/27 05:23:16;;;;;;;17.60;8.82;;;6.80;99.90;;;;;;4934054;28;20539;-86
2021/12/27 05:25:41;;;;;;;15.50;8.43;;;6.90;99.90;;;;;;4933085;29;20040;-83
2021/12/27 05:28:09;;;;;;;16.73;9.23;;;6.90;99.90;;;;;;4934867;29;20032;-82
2021/12/27 05:30:35;;;;;;;16.17;8.40;;;6.90;99.90;;;;;;4934298;29;20377;-85
2021/12/27 05:33:00;;;;;;;17.42;8.05;;;6.90;99.90;;;;;;4933063;29;20035;-86
2021/12/27 05:35:26;;;;;;;16.00;9.18;;;7.00;99.90;;;;;;4920308;29;20497;-85
2021/12/27 05:37:52;;;;;;;14.07;7.30;;;8.10;99.90;;;;;;4927015;28;20075;-86
2021/12/27 05:40:20;;;;;;;13.48;8.07;;;7.70;99.90;;;;;;4933367;29;20046;-87
2021/12/27 05:42:46;;;;;;;15.15;8.65;;;7.10;99.90;;;;;;4938141;29;20026;-85
2021/12/27 05:45:12;;;;;;;14.50;8.18;;;9.00;99.90;;;;;;4936824;29;20074;-85
2021/12/27 05:47:38;;;;;;;14.20;7.72;;;7.90;99.90;;;;;;4970049;28;20484;-86
2021/12/27 05:50:05;;;;;;;15.68;7.63;;;8.70;99.90;;;;;;4953195;28;20033;-87
2021/12/27 05:52:31;;;;;;;14.15;7.70;;;7.20;99.90;;;;;;4959497;28;20042;-85
2021/12/27 05:54:56;;;;;;;14.20;7.57;;;7.30;99.90;;;;;;4938375;28;20131;-87
2021/12/27 05:57:22;;;;;;;14.95;7.80;;;8.60;99.90;;;;;;4940449;28;20432;-84
2021/12/27 05:59:48;;;;;;;15.02;8.20;;;8.10;99.90;;;;;;4930741;29;20043;-86
2021/12/27 06:02:13;;;;;;;13.35;7.22;;;7.30;99.90;;;;;;4934200;29;20016;-82
2021/12/27 06:04:39;;;;;;;13.80;7.45;;;7.30;99.90;;;;;;4940197;29;20027;-85
2021/12/27 06:07:05;;;;;;;15.98;7.43;;;7.40;99.90;;;;;;4940648;28;20023;-84
2021/12/27 06:09:30;;;;;;;14.15;7.95;;;7.40;99.90;;;;;;4931611;29;20023;-85
2021/12/27 06:11:56;;;;;;;13.52;7.45;;;7.80;99.90;;;;;;4944440;28;20032;-85
2021/12/27 06:14:22;;;;;;;11.98;7.07;;;7.30;99.90;;;;;;4946840;28;20024;-82
2021/12/27 06:16:47;;;;;;;15.75;7.97;;;7.30;99.90;;;;;;4969313;28;20032;-85
2021/12/27 06:19:13;;;;;;;14.00;8.05;;;7.60;99.90;;;;;;4979865;28;20070;-86
2021/12/27 06:21:39;;;;;;;14.30;7.53;;;7.40;99.90;;;;;;4964490;28;20020;-87
2021/12/27 06:24:04;;;;;;;14.55;8.30;;;7.50;99.90;;;;;;4948744;28;20039;-82
2021/12/27 06:26:30;;;;;;;16.67;9.45;;;7.50;99.90;;;;;;4952880;28;20020;-84
2021/12/27 06:28:56;;;;;;;18.90;9.07;;;7.60;99.90;;;;;;4952510;28;20036;-86
2021/12/27 06:31:22;;;;;;;19.15;9.80;;;7.70;99.90;;;;;;4969590;28;20178;-84
2021/12/27 06:33:48;;;;;;;15.85;9.30;;;8.30;99.90;;;;;;4946652;28;20031;-85
2021/12/27 06:36:15;;;;;;;18.10;9.82;;;7.80;99.90;;;;;;4935278;28;20027;-88
2021/12/27 06:38:41;;;;;;;16.20;9.88;;;7.90;99.90;;;;;;4942750;28;20043;-86
2021/12/27 06:41:06;;;;;;;15.40;8.90;;;8.00;99.90;;;;;;4929881;29;20051;-87
2021/12/27 06:43:32;;;;;;;16.10;8.82;;;8.00;99.90;;;;;;4935737;29;20019;-86
2021/12/27 06:45:59;;;;;;;14.90;8.68;;;8.10;99.90;;;;;;4963957;28;20021;-84
2021/12/27 06:48:25;;;;;;;14.90;7.25;;;8.20;99.90;;;;;;4978544;28;20033;-86
2021/12/27 06:50:51;;;;;;;12.05;7.38;;;8.20;99.90;;;;;;4934077;29;20082;-83
2021/12/27 06:53:17;;;;;;;13.57;7.47;;;8.30;99.90;;;;;;4941156;29;20031;-83
2021/12/27 06:55:44;;;;;;;10.40;6.63;;;8.30;99.90;;;;;;4933161;29;20492;-87
2021/12/27 06:58:09;;;;;;;12.20;7.13;;;8.70;99.90;;;;;;4935099;28;20036;-86
2021/12/27 07:00:35;;;;;;;12.85;7.30;;;8.40;99.90;;;;;;4938354;28;20037;-87
2021/12/27 07:03:01;;;;;;;10.52;6.60;;;8.40;99.90;;;;;;4928794;28;20032;-87
2021/12/27 07:05:27;;;;;;;10.02;6.43;;;8.40;99.90;;;;;;4940592;28;20058;-84
2021/12/27 07:07:52;;;;;;;11.18;7.00;;;8.50;99.90;;;;;;4928326;28;20090;-86
2021/12/27 07:10:19;;;;;;;13.00;7.00;;;10.10;99.90;;;;;;4929126;28;20032;-88
2021/12/27 07:12:45;;;;;;;11.23;7.47;;;10.10;99.90;;;;;;4932771;28;20036;-87
2021/12/27 07:15:11;;;;;;;11.15;7.13;;;9.70;99.90;;;;;;4937821;28;20028;-86
2021/12/27 07:17:37;;;;;;;12.63;7.30;;;9.00;99.90;;;;;;4938296;28;20150;-83
2021/12/27 07:20:04;;;;;;;12.05;6.85;;;8.40;99.90;;;;;;4947942;28;20388;-83
2021/12/27 07:22:31;;;;;;;11.57;6.40;;;8.40;99.90;;;;;;4938437;28;20572;-88
2021/12/27 07:24:56;;;;;;;9.90;6.22;;;8.40;99.90;;;;;;4942609;28;20031;-87
2021/12/27 07:27:22;;;;;;;12.68;6.95;;;9.20;99.90;;;;;;4940746;28;20116;-83
2021/12/27 07:29:48;;;;;;;8.65;6.22;;;8.40;99.90;;;;;;4958603;28;20035;-87
2021/12/27 07:32:14;;;;;;;10.82;6.97;;;8.40;99.90;;;;;;4946948;28;20029;-88
2021/12/27 07:34:40;;;;;;;11.02;6.45;;;8.50;99.90;;;;;;4950603;29;20031;-85
2021/12/27 07:37:06;;;;;;;12.75;6.57;;;8.50;99.90;;;;;;4948050;28;20110;-86
2021/12/27 07:39:32;;;;;;;12.07;6.43;;;8.50;99.90;;;;;;4931982;28;20083;-82
2021/12/27 07:41:57;;;;;;;10.55;5.82;;;8.50;99.90;;;;;;4931362;28;20078;-84
2021/12/27 07:44:23;;;;;;;10.95;6.10;;;8.60;99.90;;;;;;4941406;28;20032;-84
2021/12/27 07:46:49;;;;;;;12.88;5.68;;;8.60;99.90;;;;;;4966473;28;20029;-85
2021/12/27 07:49:17;;;;;;;10.85;5.88;;;8.70;99.90;;;;;;4951548;28;20039;-88
2021/12/27 07:51:43;;;;;;;10.20;6.07;;;8.80;99.90;;;;;;4942049;28;20109;-88
2021/12/27 07:54:09;;;;;;;9.52;6.05;;;8.60;99.90;;;;;;4953394;28;20473;-88
2021/12/27 07:56:35;;;;;;;12.13;6.03;;;9.70;99.90;;;;;;4936868;29;20078;-88
2021/12/27 07:59:04;;;;;;;8.10;5.43;;;8.60;99.90;;;;;;4985008;28;20033;-89
2021/12/27 08:01:35;;;;;;;8.90;5.78;;;8.60;99.90;;;;;;4964596;28;20022;-86
2021/12/27 08:04:01;;;;;;;8.82;5.13;;;9.00;99.90;;;;;;4934735;28;20028;-88
2021/12/27 08:06:27;;;;;;;8.18;5.40;;;8.80;99.90;;;;;;5020261;28;20111;-88
2021/12/27 08:08:53;;;;;;;9.25;5.93;;;8.80;99.90;;;;;;4956288;28;20032;-86
2021/12/27 08:11:19;;;;;;;11.18;5.82;;;8.60;99.90;;;;;;4935426;28;20034;-87
2021/12/27 08:13:45;;;;;;;10.40;5.93;;;9.10;99.90;;;;;;4935654;29;20031;-88
2021/12/27 08:16:11;;;;;;;8.10;5.13;;;10.50;99.90;;;;;;4941161;28;20028;-85
2021/12/27 08:18:37;;;;;;;8.05;5.45;;;9.10;99.90;;;;;;4943515;28;20033;-88
2021/12/27 08:21:03;;;;;;;8.45;4.97;;;8.80;99.90;;;;;;4936747;28;20082;-88
2021/12/27 08:23:28;;;;;;;10.13;5.57;;;8.90;99.90;;;;;;4941427;28;20023;-85
2021/12/27 08:25:54;;;;;;;11.90;5.65;;;10.30;99.90;;;;;;4945015;28;20044;-89
2021/12/27 08:28:20;;;;;;;10.20;5.38;;;10.30;99.90;;;;;;4934979;28;20028;-88
2021/12/27 08:30:46;;;;;;;10.25;5.50;;;8.80;99.90;;;;;;4964032;28;20065;-87
2021/12/27 08:33:12;;;;;;;9.98;5.15;;;8.80;99.90;;;;;;4951902;28;20085;-87
2021/12/27 08:35:40;;;;;;;8.38;5.00;;;8.80;99.90;;;;;;4935584;29;20083;-88
2021/12/27 08:38:06;;;;;;;8.60;5.82;;;8.80;99.90;;;;;;4941989;28;20036;-88
2021/12/27 08:40:32;;;;;;;10.32;6.18;;;8.80;99.90;;;;;;4964937;28;20097;-89
2021/12/27 08:42:57;;;;;;;9.15;5.60;;;8.90;99.90;;;;;;4941747;28;20499;-87
2021/12/27 08:45:23;;;;;;;9.40;5.88;;;9.10;99.90;;;;;;4934594;29;20077;-88
2021/12/27 08:47:48;;;;;;;10.60;5.97;;;9.00;99.90;;;;;;4964651;28;20032;-89
2021/12/27 08:50:17;;;;;;;10.43;5.47;;;8.90;99.90;;;;;;4938118;28;20067;-87
2021/12/27 08:52:44;;;;;;;8.20;5.60;;;9.00;99.90;;;;;;4976062;28;20092;-87
2021/12/27 08:55:11;;;;;;;9.65;6.10;;;8.90;99.90;;;;;;4947393;28;20045;-89
2021/12/27 08:57:37;;;;;;;8.07;5.40;;;10.30;99.90;;;;;;4942281;28;20059;-87
2021/12/27 09:00:07;;;;;;;11.02;6.07;;;8.90;99.90;;;;;;4930515;28;20024;-86
2021/12/27 09:02:33;;;;;;;8.38;5.88;;;9.00;99.90;;;;;;4941125;28;20087;-89
2021/12/27 09:04:59;;;;;;;9.80;5.90;;;10.00;99.90;;;;;;4931324;29;20035;-88
2021/12/27 09:07:27;;;;;;;12.85;6.60;;;9.00;99.90;;;;;;4934037;29;20088;-86
2021/12/27 09:09:56;;;;;;;9.73;6.20;;;10.20;99.90;;;;;;4980651;28;20109;-86
2021/12/27 09:12:25;;;;;;;10.70;6.85;;;9.00;99.90;;;;;;4979565;28;20051;-85
2021/12/27 09:14:52;;;;;;;9.00;6.10;;;9.00;99.90;;;;;;4939822;28;20032;-89
2021/12/27 09:17:20;;;;;;;8.82;5.85;;;9.00;99.90;;;;;;4941369;28;20032;-89
2021/12/27 09:19:49;;;;;;;8.80;6.18;;;7.80;99.90;;;;;;4962001;28;20024;-90
2021/12/27 09:22:17;;;;;;;11.60;6.30;;;9.00;99.90;;;;;;4941231;28;20039;-88
2021/12/27 09:24:46;;;;;;;8.63;5.85;;;9.10;99.90;;;;;;4998612;28;20029;-90
2021/12/27 09:27:12;;;;;;;9.77;5.68;;;9.30;99.90;;;;;;4947052;29;20028;-88
2021/12/27 09:29:44;;;;;;;9.45;6.28;;;9.10;99.90;;;;;;4972638;28;20028;-89
2021/12/27 09:32:14;;;;;;;8.63;5.30;;;9.10;99.90;;;;;;4989152;28;20024;-90
2021/12/27 09:34:41;;;;;;;8.10;5.40;;;9.00;99.90;;;;;;4954562;28;20113;-89
2021/12/27 09:37:13;;;;;;;7.88;5.38;;;9.20;99.90;;;;;;4979501;28;20052;-88
2021/12/27 09:39:39;;;;;;;9.65;6.18;;;9.10;99.90;;;;;;4971093;28;20023;-89
2021/12/27 09:42:05;;;;;;;10.10;6.13;;;9.10;99.90;;;;;;4940887;29;20549;-88
2021/12/27 09:44:31;;;;;;;9.02;5.68;;;9.10;99.90;;;;;;4947826;28;20020;-88
2021/12/27 09:46:57;;;;;;;10.50;6.25;;;9.50;99.90;;;;;;4936278;29;20043;-88
2021/12/27 09:49:29;;;;;;;9.00;6.15;;;9.20;99.90;;;;;;4957743;28;20107;-88
2021/12/27 09:51:57;;;;;;;8.07;5.30;;;9.80;99.90;;;;;;4932642;29;20132;-87
2021/12/27 09:54:28;;;;;;;8.32;5.50;;;9.30;99.90;;;;;;4953385;29;20047;-89
2021/12/27 09:56:53;;;;;;;;;;;9.30;99.90;;;;;;4939723;29;20067;-89
2021/12/27 09:59:21;;;;;;;8.88;5.20;;;9.30;99.90;;;;;;4942679;29;19915;-88
2021/12/27 10:01:47;;;;;;;8.23;5.97;;;9.30;99.90;;;;;;4969081;28;20056;-86
2021/12/27 10:04:13;;;;;;;9.05;5.38;;;;;;;;;;4948714;28;20028;-87
2021/12/27 10:06:39;;;;;;;10.15;5.13;;;;;;;;;;4931704;29;20271;-86
2021/12/27 10:09:05;;;;;;;14.63;5.82;;;;;;;;;;4959086;28;20107;-87
2021/12/27 10:11:34;;;;;;;7.53;5.05;;;9.40;99.90;;;;;;4977192;28;20078;-87
2021/12/27 10:14:10;;;;;;;7.55;5.40;;;;;;;;;;4939814;28;20042;-84
2021/12/27 10:16:45;;;;;;;7.22;4.88;;;9.60;99.90;;;;;;4980024;28;20028;-87
2021/12/27 10:19:13;;;;;;;8.90;5.30;;;;;;;;;;4955861;28;20029;-85
2021/12/27 10:21:42;;;;;;;8.20;5.50;;;;;;;;;;4947438;28;20024;-86
2021/12/27 10:24:16;;;;;;;7.15;5.03;;;9.70;99.90;;;;;;4953730;28;20031;-86
2021/12/27 10:26:46;;;;;;;9.23;5.50;;;9.70;99.90;;;;;;4935346;29;20063;-88
2021/12/27 10:29:14;;;;;;;7.93;5.22;;;9.70;99.90;;;;;;4943370;29;20047;-87
2021/12/27 10:31:54;;;;;;;7.20;4.65;;;9.70;99.90;;;;;;4976005;28;20044;-88
2021/12/27 10:34:21;;;;;;;9.70;4.18;;;9.80;99.90;;;;;;4944943;28;20032;-88
2021/12/27 10:37:20;;;;;;;6.32;3.88;;;9.90;99.90;;;;;;4986206;28;20064;-87
2021/12/27 10:39:58;;;;;;;11.10;4.28;;;;;;;;;;4931555;29;20059;-88
2021/12/27 10:42:29;;;;;;;5.88;3.55;;;;;;;;;;4953916;28;20111;-83
2021/12/27 10:44:59;;;;;;;5.32;3.70;;;;;;;;;;5023440;28;20029;-86
2021/12/27 10:47:34;;;;;;;6.75;4.20;;;10.10;99.90;;;;;;5041844;28;20021;-87
2021/12/27 10:50:04;;;;;;;7.72;3.80;;;10.10;99.90;;;;;;5042833;28;20189;-89
2021/12/27 10:53:04;;;;;;;6.65;4.00;;;10.10;99.90;;;;;;5004369;28;20076;-90
2021/12/27 10:55:42;;;;;;;6.53;3.90;;;;;;;;;;4911884;29;20032;-88
2021/12/27 10:58:22;;;;;;;7.28;3.80;;;10.20;99.90;;;;;;5005551;23;20097;-84
2021/12/27 11:01:03;;;;;;;5.68;3.20;;;10.30;99.90;;;;;;5025970;28;20471;-82
2021/12/27 11:03:29;;;;;;;6.03;3.15;;;;;;;;;;5027174;28;20064;-86
2021/12/27 11:05:56;;;;;;;4.75;2.88;;;10.50;99.90;;;;;;5028882;28;20022;-86
2021/12/27 11:08:22;;;;;;;4.55;2.88;;;10.60;99.90;;;;;;5029943;28;20048;-89
2021/12/27 11:10:49;;;;;;;5.00;2.67;;;;;;;;;;5032701;28;20033;-87
2021/12/27 11:13:15;;;;;;;4.80;2.88;;;;;;;;;;5023854;28;20022;-82
2021/12/27 11:15:42;;;;;;;5.32;2.28;;;;;;;;;;5019941;28;20033;-85
2021/12/27 11:18:09;;;;;;;5.00;2.42;;;;;;;;;;5030241;28;20136;-82
2021/12/27 11:20:35;;;;;;;5.65;2.72;;;;;;;;;;5021035;28;20079;-82
2021/12/27 11:23:02;;;;;;;3.88;2.22;;;;;;;;;;5020300;28;20033;-80
2021/12/27 11:25:31;;;;;;;5.60;2.53;;;;;;;;;;5022855;28;20491;-84
2021/12/27 11:27:57;;;;;;;6.15;2.50;;;;;;;;;;5018445;28;20123;-81
2021/12/27 11:30:26;;;;;;;3.33;2.22;;;11.00;99.90;;;;;;5022429;28;20044;-82
2021/12/27 11:33:16;;;;;;;5.13;2.25;;;11.00;99.90;;;;;;5036017;28;20030;-80
2021/12/27 11:35:51;;;;;;;4.40;2.10;;;;;;;;;;5023530;28;20087;-84
2021/12/27 11:38:31;;;;;;;6.15;2.53;;;11.00;99.90;;;;;;5021649;28;20048;-84
2021/12/27 11:40:58;;;;;;;6.22;2.65;;;10.90;99.90;;;;;;5022459;28;20029;-80
2021/12/27 11:43:24;;;;;;;6.40;2.80;;;10.90;99.90;;;;;;5019735;28;20032;-82
2021/12/27 11:45:54;;;;;;;4.65;2.67;;;10.90;99.90;;;;;;5021004;28;20117;-82
2021/12/27 11:48:22;;;;;;;4.68;2.75;;;10.80;99.90;;;;;;5016518;28;20109;-85
2021/12/27 11:50:57;;;;;;;6.32;2.85;;;;;;;;;;5024950;28;20419;-82
2021/12/27 11:53:27;;;;;;;5.57;2.90;;;;;;;;;;5029181;28;20376;-84
2021/12/27 11:55:54;;;;;;;4.95;2.83;;;;;;;;;;5021807;28;20127;-84
2021/12/27 11:58:37;;;;;;;7.47;3.17;;;;;;;;;;5020964;28;20038;-84
2021/12/27 12:01:05;;;;;;;5.15;2.92;;;;;;;;;;5028292;28;20048;-84
2021/12/27 12:03:37;;;;;;;5.47;2.85;;;10.70;99.90;;;;;;5022304;28;20450;-83
2021/12/27 12:06:04;;;;;;;9.85;3.53;;;10.70;99.90;;;;;;5023963;28;20030;-84
2021/12/27 12:08:38;;;;;;;6.43;3.13;;;10.60;99.90;;;;;;5020319;28;20022;-85
2021/12/27 12:11:08;;;;;;;5.07;2.78;;;10.60;99.90;;;;;;5025834;28;20032;-85
2021/12/27 12:13:36;;;;;;;6.63;3.03;;;10.60;99.90;;;;;;5025927;28;20033;-82
2021/12/27 12:16:10;;;;;;;4.93;2.83;;;10.70;99.90;;;;;;5025138;28;20028;-85
2021/12/27 12:18:40;;;;;;;6.70;3.10;;;10.60;99.90;;;;;;5023868;28;20025;-85
2021/12/27 12:21:06;;;;;;;;;;;12.00;99.90;;;;;;5023958;28;20508;-81
2021/12/27 12:23:36;;;;;;;7.85;3.13;;;10.60;99.90;;;;;;5030744;28;19945;-83
2021/12/27 12:26:04;;;;;;;4.97;3.08;;;10.50;99.90;;;;;;5024790;28;20108;-84
2021/12/27 12:28:30;;;;;;;4.82;2.90;;;10.70;99.90;;;;;;5025189;28;20549;-82
2021/12/27 12:30:57;;;;;;;6.70;2.90;;;10.60;99.90;;;;;;5024252;28;20080;-83
2021/12/27 12:33:24;;;;;;;5.35;2.67;;;10.70;99.90;;;;;;5021142;28;20045;-84
2021/12/27 12:35:57;;;;;;;5.28;2.30;;;10.70;99.90;;;;;;5025972;28;20071;-80
2021/12/27 12:38:34;;;;;;;5.40;2.35;;;10.70;99.90;;;;;;5024436;28;20454;-81
2021/12/27 12:41:17;;;;;;;4.95;2.50;;;10.70;99.90;;;;;;5027211;28;20021;-83
2021/12/27 12:43:50;;;;;;;3.92;2.08;;;10.70;99.90;;;;;;5022365;28;20033;-82
2021/12/27 12:46:24;;;;;;;3.40;1.80;;;10.70;99.90;;;;;;5026759;28;20113;-83
2021/12/27 12:49:03;;;;;;;3.05;1.70;;;10.70;99.90;;;;;;5027831;28;20049;-82
2021/12/27 12:51:40;;;;;;;3.75;1.80;;;10.80;99.90;;;;;;5029228;28;20030;-80
2021/12/27 12:54:24;;;;;;;3.45;1.70;;;10.80;99.90;;;;;;5048160;28;20033;-80
2021/12/27 12:56:53;;;;;;;4.50;1.67;;;10.80;99.90;;;;;;5031752;28;20041;-79
2021/12/27 12:59:30;;;;;;;2.75;1.65;;;10.90;99.90;;;;;;5036878;28;21049;-81
2021/12/27 13:01:57;;;;;;;3.08;1.88;;;10.80;99.90;;;;;;5035253;28;20067;-80
2021/12/27 13:04:23;;;;;;;3.28;1.80;;;10.90;99.90;;;;;;5026028;28;20499;-84
2021/12/27 13:06:49;;;;;;;2.97;1.60;;;10.80;99.90;;;;;;5031889;28;20056;-83
2021/12/27 13:09:14;;;;;;;2.95;1.75;;;13.50;99.90;;;;;;5029399;28;20029;-79
2021/12/27 13:11:41;;;;;;;3.90;2.00;;;11.90;99.90;;;;;;5029895;28;20026;-84